Time;durP1;ratioP1;P1;durP2;ratioP2;P2;SDS_P1;SDS_P2;PMS_P1;PMS_P2;Temp;Humidity;BMP_temperature;BMP_pressure;BME280_temperature;BME280_humidity;BME280_pressure;Samples;Min_cycle;Max_cycle;Signal;HPM_P1;HPM_P2
2023/07/23 00:01:40;;;;;;;4.30;3.63;;;23.50;51.10;24.30;100239.00;;;;6272153;22;20145;-53
2023/07/23 00:04:06;;;;;;;3.80;3.50;;;23.50;50.90;24.20;100233.00;;;;6271174;22;20145;-53
2023/07/23 00:06:33;;;;;;;4.17;3.70;;;23.40;50.80;24.20;100233.00;;;;6270885;22;20161;-53
2023/07/23 00:08:59;;;;;;;4.10;3.70;;;23.40;50.80;24.20;100233.00;;;;6271091;22;20264;-54
2023/07/23 00:11:24;;;;;;;5.00;3.73;;;23.40;50.80;24.20;100166.00;;;;6271219;22;20149;-53
2023/07/23 00:13:50;;;;;;;4.37;3.97;;;23.40;50.70;24.10;100225.00;;;;6270891;22;20224;-53
2023/07/23 00:16:16;;;;;;;4.30;3.90;;;23.40;50.50;24.10;100216.00;;;;6271044;22;20235;-53
2023/07/23 00:18:42;;;;;;;4.43;4.00;;;23.30;50.40;24.10;100207.00;;;;6271036;22;20494;-54
2023/07/23 00:21:07;;;;;;;4.27;3.87;;;23.40;50.50;24.10;100209.00;;;;6272052;22;20228;-53
2023/07/23 00:23:33;;;;;;;4.30;3.90;;;23.30;50.40;24.10;100204.00;;;;6276903;22;20227;-53
2023/07/23 00:25:59;;;;;;;4.37;3.97;;;23.30;50.50;24.10;100196.00;;;;6275471;22;20152;-53
2023/07/23 00:28:24;;;;;;;4.33;3.93;;;23.20;50.30;24.00;100186.00;;;;6271128;22;20169;-52
2023/07/23 00:30:51;;;;;;;4.70;4.20;;;23.20;50.20;24.00;100175.00;;;;6271242;22;20299;-53
2023/07/23 00:33:20;;;;;;;4.60;4.13;;;23.20;50.10;24.00;100183.00;;;;6271326;22;20175;-53
2023/07/23 00:35:45;;;;;;;4.40;3.93;;;23.20;49.90;24.00;100175.00;;;;6273251;22;20156;-53
2023/07/23 00:38:11;;;;;;;4.10;3.80;;;23.20;49.80;24.00;100169.00;;;;6276375;22;20165;-53
2023/07/23 00:40:37;;;;;;;4.70;4.30;;;23.20;49.80;23.90;100175.00;;;;6270953;22;20576;-53
2023/07/23 00:43:03;;;;;;;5.13;4.30;;;23.20;49.80;23.90;100154.00;;;;6270378;22;20148;-53
2023/07/23 00:45:28;;;;;;;5.00;4.50;;;23.10;49.80;23.90;100154.00;;;;6270191;22;20141;-53
2023/07/23 00:47:54;;;;;;;4.70;4.20;;;23.10;49.80;23.90;100153.00;;;;6270438;22;20165;-53
2023/07/23 00:50:20;;;;;;;4.63;4.23;;;23.10;49.60;23.90;100145.00;;;;6268525;22;20156;-53
2023/07/23 00:52:46;;;;;;;4.77;4.37;;;23.10;49.60;23.90;100156.00;;;;6269152;22;20153;-53
2023/07/23 00:55:11;;;;;;;4.67;4.27;;;23.10;49.60;23.80;100143.00;;;;6270623;22;20169;-53
2023/07/23 00:57:37;;;;;;;4.70;4.30;;;23.00;49.50;23.80;100145.00;;;;6269526;22;20617;-53
2023/07/23 01:00:07;;;;;;;4.73;4.30;;;23.00;49.30;23.80;100147.00;;;;6271112;22;20489;-53
2023/07/23 01:02:33;;;;;;;5.07;4.57;;;23.00;49.30;23.80;100146.00;;;;6270999;22;20179;-53
2023/07/23 01:04:59;;;;;;;4.83;4.40;;;23.00;49.10;23.80;100140.00;;;;6270441;22;20620;-53
2023/07/23 01:07:25;;;;;;;4.73;4.33;;;23.00;49.20;23.70;100133.00;;;;6270492;22;20165;-53
2023/07/23 01:09:51;;;;;;;4.60;4.20;;;23.00;49.00;23.70;100135.00;;;;6269382;22;20177;-52
2023/07/23 01:12:17;;;;;;;4.80;4.30;;;23.00;49.00;23.70;100137.00;;;;6243556;22;20145;-53
2023/07/23 01:14:43;;;;;;;4.60;4.20;;;22.90;49.00;23.70;100121.00;;;;6269167;22;20177;-53
2023/07/23 01:17:09;;;;;;;5.07;4.67;;;23.00;49.00;23.70;100118.00;;;;6218125;22;20184;-53
2023/07/23 01:19:36;;;;;;;6.37;4.60;;;22.90;49.00;23.70;100123.00;;;;6268976;22;20145;-53
2023/07/23 01:22:05;;;;;;;4.77;4.37;;;22.90;48.90;23.60;100121.00;;;;6270658;22;20202;-53
2023/07/23 01:24:31;;;;;;;6.53;4.57;;;22.90;48.90;23.60;100118.00;;;;6270494;22;20145;-53
2023/07/23 01:26:56;;;;;;;5.30;4.80;;;22.90;48.90;23.60;100110.00;;;;6270279;22;20613;-52
2023/07/23 01:29:22;;;;;;;4.77;4.33;;;22.90;49.00;23.60;100111.00;;;;6270402;22;20167;-53
2023/07/23 01:31:48;;;;;;;5.07;4.50;;;22.90;49.00;23.60;100111.00;;;;6270761;22;20145;-52
2023/07/23 01:34:13;;;;;;;5.43;4.93;;;22.80;49.00;23.60;100096.00;;;;6270543;22;20169;-52
2023/07/23 01:36:39;;;;;;;5.10;4.60;;;22.90;48.90;23.60;100102.00;;;;6270581;22;20155;-52
2023/07/23 01:39:05;;;;;;;5.27;4.67;;;22.80;48.90;23.50;100104.00;;;;6268765;22;20649;-52
2023/07/23 01:41:30;;;;;;;4.90;4.50;;;22.80;48.80;23.50;100096.00;;;;6268822;22;20145;-52
2023/07/23 01:43:58;;;;;;;5.40;4.87;;;22.80;48.80;23.50;100086.00;;;;6243339;22;20149;-52
2023/07/23 01:46:24;;;;;;;5.00;4.50;;;22.80;48.80;23.50;100085.00;;;;6270017;22;20495;-53
2023/07/23 01:48:50;;;;;;;4.80;4.40;;;22.80;48.70;23.50;100084.00;;;;6270221;22;20204;-53
2023/07/23 01:51:15;;;;;;;5.03;4.60;;;22.80;48.80;23.50;100076.00;;;;6269734;22;20145;-53
2023/07/23 01:53:41;;;;;;;5.17;4.77;;;22.80;48.80;23.50;100082.00;;;;6270173;22;20165;-52
2023/07/23 01:56:07;;;;;;;5.23;4.80;;;22.70;48.70;23.40;100078.00;;;;6271013;22;20149;-52
2023/07/23 01:58:33;;;;;;;4.77;4.27;;;22.70;48.70;23.40;100068.00;;;;6272135;22;20165;-52
2023/07/23 02:01:00;;;;;;;5.00;4.60;;;22.70;48.70;23.40;100070.00;;;;6272152;22;20503;-52
2023/07/23 02:03:26;;;;;;;5.00;4.60;;;22.70;48.70;23.40;100078.00;;;;6272243;22;20178;-53
2023/07/23 02:06:00;;;;;;;5.20;4.70;;;22.70;48.70;23.40;100061.00;;;;6270035;22;20148;-52
2023/07/23 02:08:26;;;;;;;5.00;4.60;;;22.70;48.80;23.40;100062.00;;;;6272680;22;20263;-52
2023/07/23 02:11:01;;;;;;;4.97;4.57;;;22.70;48.80;23.40;100057.00;;;;6272076;22;20152;-52
2023/07/23 02:13:29;;;;;;;5.37;4.87;;;22.60;48.70;23.30;100054.00;;;;6273254;22;20218;-53
2023/07/23 02:15:55;;;;;;;4.73;4.40;;;22.60;48.70;23.30;100048.00;;;;6273214;22;20157;-52
2023/07/23 02:18:21;;;;;;;5.13;4.63;;;22.60;48.60;23.30;100058.00;;;;6272601;22;20470;-53
2023/07/23 02:20:47;;;;;;;5.03;4.53;;;22.60;48.60;23.30;100045.00;;;;6270910;22;20199;-55
2023/07/23 02:23:15;;;;;;;5.00;4.47;;;22.60;48.50;23.30;100041.00;;;;6273035;22;20148;-53
2023/07/23 02:25:41;;;;;;;5.20;4.80;;;22.60;48.60;23.30;100041.00;;;;6282434;22;20145;-53
2023/07/23 02:28:10;;;;;;;5.23;4.63;;;22.60;48.60;23.30;100047.00;;;;6273520;22;20219;-53
2023/07/23 02:30:36;;;;;;;5.40;4.90;;;22.60;48.60;23.30;99981.00;;;;6271985;22;20157;-52
2023/07/23 02:33:02;;;;;;;5.23;4.80;;;22.50;48.50;23.20;100048.00;;;;6272147;22;20498;-53
2023/07/23 02:35:27;;;;;;;4.97;4.57;;;22.50;48.40;23.20;100036.00;;;;6271841;22;20275;-53
2023/07/23 02:37:53;;;;;;;5.47;4.67;;;22.50;48.40;23.20;100033.00;;;;6272107;22;20161;-53
2023/07/23 02:40:19;;;;;;;4.67;4.27;;;22.50;49.10;23.20;100037.00;;;;6280536;22;20142;-52
2023/07/23 02:42:47;;;;;;;6.27;4.90;;;22.50;48.40;23.20;100040.00;;;;6272815;22;20152;-52
2023/07/23 02:45:13;;;;;;;5.57;4.73;;;22.50;48.50;23.20;100040.00;;;;6271703;22;20464;-52
2023/07/23 02:47:39;;;;;;;4.77;4.37;;;22.50;48.50;23.20;100029.00;;;;6270422;22;20234;-53
2023/07/23 02:50:06;;;;;;;5.20;4.80;;;22.50;48.60;23.10;100031.00;;;;6272440;22;20157;-53
2023/07/23 02:52:32;;;;;;;5.50;5.00;;;22.50;48.60;23.10;100032.00;;;;6271698;22;20188;-53
2023/07/23 02:54:57;;;;;;;5.33;4.83;;;22.40;48.60;23.10;100032.00;;;;6271664;22;20173;-53
2023/07/23 02:57:23;;;;;;;4.80;4.40;;;22.40;48.70;23.10;100033.00;;;;6271502;22;20165;-53
2023/07/23 02:59:49;;;;;;;5.47;4.50;;;22.40;48.70;23.10;100024.00;;;;6271794;22;20179;-53
2023/07/23 03:02:14;;;;;;;5.27;4.77;;;22.40;48.70;23.10;100026.00;;;;6273466;22;20195;-53
2023/07/23 03:04:41;;;;;;;5.00;4.60;;;22.40;48.80;23.10;100027.00;;;;6273630;22;20176;-53
2023/07/23 03:07:09;;;;;;;4.73;4.33;;;22.40;48.90;23.00;100028.00;;;;6273059;22;20188;-51
2023/07/23 03:09:35;;;;;;;4.90;4.47;;;22.40;48.90;23.00;100031.00;;;;6274131;22;20236;-53
2023/07/23 03:12:02;;;;;;;5.43;4.60;;;22.40;48.90;23.00;100020.00;;;;6273811;22;20172;-53
2023/07/23 03:14:28;;;;;;;5.23;4.73;;;22.40;49.00;23.00;100020.00;;;;6273892;22;20192;-53
2023/07/23 03:16:54;;;;;;;4.73;4.30;;;22.40;49.00;23.00;100025.00;;;;6273205;22;20501;-53
2023/07/23 03:19:19;;;;;;;4.73;4.33;;;22.40;49.00;23.00;100028.00;;;;6273716;22;20481;-53
2023/07/23 03:21:45;;;;;;;4.83;4.43;;;22.40;49.00;23.00;100020.00;;;;6273484;22;20141;-52
2023/07/23 03:24:11;;;;;;;5.13;4.40;;;22.40;49.00;23.00;100031.00;;;;6273423;22;20149;-52
2023/07/23 03:26:36;;;;;;;5.90;4.80;;;22.40;49.00;23.00;100012.00;;;;6273322;22;20215;-52
2023/07/23 03:29:02;;;;;;;4.80;4.40;;;22.30;49.00;22.90;100006.00;;;;6273017;22;20165;-52
2023/07/23 03:31:28;;;;;;;4.83;4.43;;;22.30;49.20;22.90;100013.00;;;;6272520;22;20149;-52
2023/07/23 03:33:54;;;;;;;4.87;4.47;;;22.30;49.20;22.90;100021.00;;;;6273167;22;20179;-52
2023/07/23 03:36:19;;;;;;;5.07;4.60;;;22.30;49.20;22.90;100022.00;;;;6272939;22;20148;-52
2023/07/23 03:38:45;;;;;;;4.70;4.30;;;22.30;49.20;22.90;100022.00;;;;6273308;22;20457;-52
2023/07/23 03:41:11;;;;;;;5.10;4.57;;;22.30;49.20;22.90;100016.00;;;;6273207;22;20733;-53
2023/07/23 03:43:37;;;;;;;4.93;4.43;;;22.30;49.30;22.90;100017.00;;;;6271505;22;20203;-53
2023/07/23 03:46:02;;;;;;;4.90;4.50;;;22.20;49.20;22.90;100022.00;;;;6272695;22;20153;-53
2023/07/23 03:48:28;;;;;;;5.23;4.73;;;22.20;49.20;22.80;100031.00;;;;6272948;22;20260;-52
2023/07/23 03:50:54;;;;;;;5.60;4.47;;;22.20;49.30;22.80;100030.00;;;;6272327;22;20149;-52
2023/07/23 03:53:19;;;;;;;5.07;4.53;;;22.20;49.40;22.80;100012.00;;;;6272789;22;20172;-53
2023/07/23 03:55:45;;;;;;;5.53;4.57;;;22.20;49.30;22.80;100035.00;;;;6272795;22;20752;-53
2023/07/23 03:58:12;;;;;;;5.10;4.60;;;22.20;49.30;22.80;100015.00;;;;6272825;22;20203;-52
2023/07/23 04:00:40;;;;;;;4.97;4.50;;;22.20;49.40;22.80;100020.00;;;;6271581;22;20216;-52
2023/07/23 04:03:06;;;;;;;4.90;4.47;;;22.20;49.30;22.80;100022.00;;;;6273257;22;20485;-53
2023/07/23 04:05:31;;;;;;;4.60;4.20;;;22.20;49.40;22.70;100014.00;;;;6272310;22;20149;-52
2023/07/23 04:07:57;;;;;;;4.90;4.30;;;22.20;49.40;22.70;100018.00;;;;6272926;22;20169;-52
2023/07/23 04:10:23;;;;;;;5.37;4.60;;;22.20;49.40;22.70;100019.00;;;;6272935;22;20149;-52
2023/07/23 04:12:48;;;;;;;4.43;4.03;;;22.10;49.40;22.70;100015.00;;;;6272831;22;20156;-52
2023/07/23 04:15:14;;;;;;;4.60;4.20;;;22.10;49.30;22.70;100012.00;;;;6271448;22;20513;-52
2023/07/23 04:17:40;;;;;;;4.87;4.30;;;22.10;49.40;22.70;100019.00;;;;6270728;22;20188;-52
2023/07/23 04:20:06;;;;;;;7.40;4.30;;;22.10;49.50;22.70;100019.00;;;;6272740;22;20142;-52
2023/07/23 04:22:32;;;;;;;5.10;4.40;;;22.10;49.50;22.70;100007.00;;;;6273329;22;20221;-52
2023/07/23 04:24:58;;;;;;;4.90;4.53;;;22.10;49.50;22.60;100002.00;;;;6271201;22;20602;-52
2023/07/23 04:27:24;;;;;;;5.20;4.40;;;22.10;49.50;22.60;100007.00;;;;6278841;22;20180;-52
2023/07/23 04:29:49;;;;;;;4.70;4.30;;;22.10;49.50;22.60;100010.00;;;;6273820;22;20148;-52
2023/07/23 04:32:15;;;;;;;4.53;4.13;;;22.10;49.50;22.60;100009.00;;;;6272419;22;20145;-52
2023/07/23 04:34:41;;;;;;;5.77;4.40;;;22.10;49.60;22.60;100006.00;;;;6272305;22;20169;-52
2023/07/23 04:37:07;;;;;;;4.20;3.80;;;22.00;49.60;22.60;100009.00;;;;6271903;22;20165;-52
2023/07/23 04:39:33;;;;;;;4.80;4.40;;;22.00;49.60;22.60;100012.00;;;;6272806;22;20145;-52
2023/07/23 04:41:59;;;;;;;5.57;4.27;;;22.00;49.70;22.60;100022.00;;;;6279374;22;20149;-52
2023/07/23 04:44:25;;;;;;;4.77;4.07;;;22.00;49.60;22.60;100010.00;;;;6273377;22;20494;-52
2023/07/23 04:46:50;;;;;;;4.83;4.40;;;22.00;49.70;22.60;100030.00;;;;6271732;22;20187;-52
2023/07/23 04:49:16;;;;;;;4.70;4.30;;;22.00;49.70;22.60;100019.00;;;;6272425;22;20145;-52
2023/07/23 04:51:42;;;;;;;4.60;4.00;;;21.90;49.60;22.60;100016.00;;;;6271086;22;20149;-52
2023/07/23 04:54:07;;;;;;;4.87;4.00;;;21.90;49.70;22.50;100038.00;;;;6264732;22;20231;-51
2023/07/23 04:56:33;;;;;;;4.20;3.80;;;21.90;49.80;22.50;100015.00;;;;6269623;22;20174;-51
2023/07/23 04:58:59;;;;;;;4.40;4.00;;;21.90;49.70;22.50;100010.00;;;;6271635;22;20222;-52
2023/07/23 05:01:25;;;;;;;4.53;3.83;;;21.90;49.60;22.50;100010.00;;;;6270724;22;20624;-51
2023/07/23 05:03:51;;;;;;;4.37;4.00;;;22.00;49.80;22.50;100010.00;;;;6272416;22;20589;-51
2023/07/23 05:06:16;;;;;;;4.40;3.80;;;22.00;49.70;22.50;100018.00;;;;6270803;22;20289;-51
2023/07/23 05:08:42;;;;;;;4.70;4.30;;;22.00;49.70;22.50;100019.00;;;;6271929;22;20165;-51
2023/07/23 05:11:08;;;;;;;4.70;4.30;;;22.00;49.70;22.60;100013.00;;;;6272293;22;20160;-52
2023/07/23 05:13:35;;;;;;;4.30;4.00;;;22.00;49.70;22.60;100011.00;;;;6271742;22;20177;-52
2023/07/23 05:16:02;;;;;;;5.57;4.07;;;22.00;49.70;22.60;100005.00;;;;6270654;22;20152;-52
2023/07/23 05:18:28;;;;;;;4.20;3.77;;;22.00;49.70;22.60;100015.00;;;;6270362;22;20204;-51
2023/07/23 05:20:54;;;;;;;4.17;3.80;;;22.00;49.70;22.60;100013.00;;;;6271730;22;20693;-51
2023/07/23 05:23:20;;;;;;;4.17;3.87;;;22.00;49.70;22.60;100004.00;;;;6271234;22;20275;-51
2023/07/23 05:25:46;;;;;;;4.67;4.17;;;22.00;49.80;22.60;100005.00;;;;6269222;22;20152;-52
2023/07/23 05:28:12;;;;;;;4.87;3.90;;;22.00;49.80;22.60;100019.00;;;;6271693;22;20168;-53
2023/07/23 05:30:38;;;;;;;5.53;3.90;;;22.00;49.80;22.60;100014.00;;;;6272097;22;20152;-52
2023/07/23 05:33:04;;;;;;;3.90;3.60;;;22.00;49.80;22.60;100002.00;;;;6271621;22;20140;-53
2023/07/23 05:35:29;;;;;;;4.20;3.90;;;22.00;49.80;22.60;100004.00;;;;6270023;22;20203;-52
2023/07/23 05:37:55;;;;;;;4.40;3.83;;;22.00;49.80;22.60;100001.00;;;;6271255;22;20161;-52
2023/07/23 05:40:21;;;;;;;3.83;3.53;;;21.90;49.80;22.60;100009.00;;;;6271875;22;20142;-52
2023/07/23 05:42:47;;;;;;;4.07;3.73;;;22.00;49.90;22.50;100006.00;;;;6272124;22;20144;-53
2023/07/23 05:45:13;;;;;;;4.37;3.97;;;22.00;49.90;22.50;100007.00;;;;6270497;22;20183;-53
2023/07/23 05:47:38;;;;;;;4.17;3.83;;;22.00;49.90;22.50;100007.00;;;;6270868;22;20564;-51
2023/07/23 05:50:05;;;;;;;4.20;3.80;;;21.90;50.00;22.50;100008.00;;;;6271479;22;20160;-51
2023/07/23 05:52:30;;;;;;;4.30;3.90;;;22.00;50.00;22.50;100004.00;;;;6270175;22;20557;-51
2023/07/23 05:54:56;;;;;;;4.73;3.80;;;21.90;50.60;22.50;100003.00;;;;6271268;22;20172;-51
2023/07/23 05:57:22;;;;;;;4.07;3.77;;;21.90;49.90;22.50;100003.00;;;;6270048;22;20185;-51
2023/07/23 05:59:48;;;;;;;4.17;3.77;;;21.90;50.00;22.50;100010.00;;;;6270536;22;20639;-53
2023/07/23 06:02:13;;;;;;;5.00;4.10;;;21.90;50.30;22.60;100003.00;;;;6271292;22;20151;-53
2023/07/23 06:04:39;;;;;;;4.40;4.00;;;21.90;50.00;22.50;100001.00;;;;6271320;22;20149;-51
2023/07/23 06:07:05;;;;;;;4.17;3.77;;;21.90;50.10;22.50;99998.00;;;;6270057;22;20232;-53
2023/07/23 06:09:31;;;;;;;4.10;3.80;;;21.90;50.10;22.50;100003.00;;;;6271494;22;20149;-52
2023/07/23 06:11:57;;;;;;;4.20;3.83;;;21.90;50.10;22.50;100004.00;;;;6271616;22;20219;-53
2023/07/23 06:14:22;;;;;;;4.10;3.80;;;21.90;50.20;22.50;100003.00;;;;6271666;22;20530;-52
2023/07/23 06:16:48;;;;;;;4.07;3.70;;;21.90;50.30;22.50;100002.00;;;;6269940;22;20160;-53
2023/07/23 06:19:14;;;;;;;4.30;3.90;;;21.90;50.40;22.50;100006.00;;;;6271279;22;20149;-53
2023/07/23 06:21:39;;;;;;;3.83;3.53;;;21.90;50.50;22.50;100001.00;;;;6271605;22;20146;-53
2023/07/23 06:24:05;;;;;;;4.23;3.83;;;21.90;50.50;22.50;100011.00;;;;6271244;22;20164;-53
2023/07/23 06:26:31;;;;;;;4.33;3.93;;;21.90;50.50;22.50;100010.00;;;;6270850;22;20149;-52
2023/07/23 06:28:57;;;;;;;4.27;3.80;;;21.90;50.50;22.50;100009.00;;;;6283846;22;20169;-52
2023/07/23 06:31:22;;;;;;;4.77;3.70;;;21.90;50.60;22.50;99999.00;;;;6273419;22;20659;-52
2023/07/23 06:33:48;;;;;;;3.97;3.57;;;21.90;50.60;22.40;100007.00;;;;6271042;22;20177;-52
2023/07/23 06:36:14;;;;;;;5.80;3.60;;;21.80;50.50;22.40;100001.00;;;;6269533;22;20149;-52
2023/07/23 06:38:39;;;;;;;3.93;3.60;;;21.80;50.50;22.40;100007.00;;;;6270891;22;20169;-51
2023/07/23 06:41:06;;;;;;;3.90;3.50;;;21.90;50.60;22.40;100007.00;;;;6271324;22;20529;-52
2023/07/23 06:43:32;;;;;;;3.47;3.17;;;21.80;50.60;22.40;100007.00;;;;6277447;22;20155;-51
2023/07/23 06:45:58;;;;;;;4.20;3.80;;;21.80;50.50;22.40;99988.00;;;;6272866;22;20227;-51
2023/07/23 06:48:28;;;;;;;3.53;3.23;;;21.90;50.60;22.40;100002.00;;;;6273697;22;20161;-52
2023/07/23 06:50:55;;;;;;;3.37;3.07;;;21.80;50.50;22.40;99990.00;;;;6272383;22;20156;-52
2023/07/23 06:53:21;;;;;;;3.67;3.37;;;21.80;50.50;22.40;100002.00;;;;6272624;22;20593;-52
2023/07/23 06:56:09;;;;;;;3.43;3.10;;;21.90;50.50;22.40;100002.00;;;;6273120;22;20141;-53
2023/07/23 06:58:36;;;;;;;3.50;3.20;;;21.80;50.50;22.40;99995.00;;;;6273674;22;20256;-52
2023/07/23 07:01:02;;;;;;;3.40;3.10;;;21.80;50.50;22.40;99994.00;;;;6272233;22;20159;-52
2023/07/23 07:03:27;;;;;;;4.60;3.10;;;21.80;50.40;22.40;99997.00;;;;6273231;22;20153;-52
2023/07/23 07:05:53;;;;;;;3.30;3.00;;;21.90;50.40;22.40;100003.00;;;;6271916;22;20146;-52
2023/07/23 07:08:19;;;;;;;3.43;3.13;;;21.80;50.40;22.40;99992.00;;;;6272732;22;20271;-52
2023/07/23 07:10:46;;;;;;;3.40;3.10;;;21.80;50.30;22.40;99996.00;;;;6273423;22;20168;-52
2023/07/23 07:13:12;;;;;;;3.67;3.00;;;21.80;50.40;22.40;100006.00;;;;6272673;22;20141;-52
2023/07/23 07:15:40;;;;;;;3.40;3.10;;;21.70;50.30;22.40;100006.00;;;;6271881;22;20180;-52
2023/07/23 07:18:06;;;;;;;3.43;3.10;;;21.80;50.40;22.40;100003.00;;;;6271217;22;20264;-53
2023/07/23 07:20:32;;;;;;;3.60;3.30;;;21.80;50.40;22.40;100009.00;;;;6272812;22;20149;-52
2023/07/23 07:22:57;;;;;;;3.43;3.13;;;21.80;50.60;22.40;100009.00;;;;6272513;22;20502;-52
2023/07/23 07:25:23;;;;;;;5.53;3.27;;;21.80;50.70;22.40;100013.00;;;;6271769;22;20152;-52
2023/07/23 07:27:49;;;;;;;3.40;2.83;;;21.80;50.90;22.40;100021.00;;;;6272302;22;20222;-52
2023/07/23 07:30:15;;;;;;;3.50;3.20;;;21.90;51.30;22.40;100024.00;;;;6271512;22;20212;-52
2023/07/23 07:32:40;;;;;;;3.60;3.30;;;21.80;51.60;22.40;100018.00;;;;6272647;22;20716;-52
2023/07/23 07:35:06;;;;;;;3.10;2.80;;;21.80;51.70;22.40;100031.00;;;;6272209;22;20179;-52
2023/07/23 07:37:32;;;;;;;3.40;3.10;;;21.80;51.70;22.40;100021.00;;;;6271231;22;20172;-52
2023/07/23 07:39:58;;;;;;;3.17;2.87;;;21.80;51.70;22.40;100018.00;;;;6272855;22;20149;-52
2023/07/23 07:42:23;;;;;;;3.27;2.87;;;21.80;51.70;22.40;100027.00;;;;6273037;22;20145;-52
2023/07/23 07:44:49;;;;;;;3.40;3.00;;;21.80;51.70;22.40;100022.00;;;;6270400;22;20486;-53
2023/07/23 07:47:15;;;;;;;3.40;3.10;;;21.80;51.70;22.40;100018.00;;;;6271291;22;20165;-53
2023/07/23 07:49:41;;;;;;;3.17;2.97;;;21.80;52.00;22.40;100017.00;;;;6272598;22;20156;-52
2023/07/23 07:52:07;;;;;;;3.53;3.07;;;21.80;51.90;22.40;100030.00;;;;6263462;22;20156;-52
2023/07/23 07:54:35;;;;;;;2.97;2.77;;;21.80;52.10;22.40;100016.00;;;;6270198;22;20256;-53
2023/07/23 07:57:02;;;;;;;3.40;3.10;;;21.80;52.20;22.40;100021.00;;;;6268290;22;20153;-54
2023/07/23 07:59:28;;;;;;;3.17;2.90;;;21.80;52.20;22.40;100019.00;;;;6271241;22;20543;-53
2023/07/23 08:01:54;;;;;;;3.10;2.80;;;21.80;52.20;22.40;100009.00;;;;6268812;22;20146;-54
2023/07/23 08:04:21;;;;;;;3.50;3.20;;;21.80;52.40;22.40;100022.00;;;;6270855;22;20163;-56
2023/07/23 08:06:50;;;;;;;3.60;3.30;;;21.80;52.60;22.40;100023.00;;;;6267833;22;20198;-55
2023/07/23 08:09:16;;;;;;;4.43;3.13;;;21.80;53.00;22.40;100031.00;;;;6268904;22;20172;-55
2023/07/23 08:11:42;;;;;;;3.53;2.93;;;21.80;53.30;22.40;100030.00;;;;6269950;22;20149;-54
2023/07/23 08:14:09;;;;;;;3.60;3.30;;;21.80;53.60;22.40;100048.00;;;;6243161;22;20571;-54
2023/07/23 08:16:35;;;;;;;4.53;3.17;;;21.80;53.80;22.40;100040.00;;;;6241805;22;20239;-54
2023/07/23 08:19:01;;;;;;;3.90;3.50;;;21.80;54.10;22.40;100048.00;;;;6267760;22;20165;-54
2023/07/23 08:21:27;;;;;;;3.50;3.20;;;21.80;54.30;22.20;100042.00;;;;6268692;22;20149;-55
2023/07/23 08:23:53;;;;;;;3.43;3.10;;;21.80;54.30;22.40;100040.00;;;;6270919;22;20219;-54
2023/07/23 08:26:20;;;;;;;3.27;2.97;;;21.80;54.60;22.40;100054.00;;;;6270638;22;20154;-55
2023/07/23 08:28:54;;;;;;;3.70;3.40;;;21.80;54.80;22.40;100060.00;;;;6270677;22;20677;-52
2023/07/23 08:31:20;;;;;;;4.23;3.20;;;21.80;55.00;22.50;100075.00;;;;6271171;22;20210;-53
2023/07/23 08:33:47;;;;;;;3.53;3.00;;;21.80;55.30;22.40;100052.00;;;;6269829;22;20200;-53
2023/07/23 08:36:13;;;;;;;4.07;3.13;;;21.80;55.40;22.50;100066.00;;;;6268395;22;20191;-53
2023/07/23 08:38:39;;;;;;;3.57;3.00;;;21.80;55.80;22.50;100067.00;;;;6270401;22;20183;-55
2023/07/23 08:41:06;;;;;;;4.00;3.17;;;21.80;55.60;22.50;100062.00;;;;6268643;22;20145;-53
2023/07/23 08:44:14;;;;;;;3.47;3.17;;;21.80;55.80;22.50;100069.00;;;;6219459;22;20239;-54
2023/07/23 08:46:45;;;;;;;3.63;3.20;;;21.80;56.00;22.50;100067.00;;;;6270020;22;20591;-53
2023/07/23 08:49:11;;;;;;;3.40;3.10;;;21.80;56.10;22.50;100069.00;;;;6270865;22;20782;-53
2023/07/23 08:51:47;;;;;;;4.43;3.10;;;21.80;56.30;22.50;100077.00;;;;6268726;22;20145;-52
2023/07/23 08:54:16;;;;;;;3.20;2.90;;;21.80;56.60;22.50;100073.00;;;;6270460;22;20203;-53
2023/07/23 08:56:42;;;;;;;3.50;3.20;;;21.80;56.80;22.50;100083.00;;;;6267026;22;20149;-54
2023/07/23 08:59:08;;;;;;;3.27;2.93;;;21.90;56.90;22.50;100073.00;;;;6269627;22;20676;-54
2023/07/23 09:01:39;;;;;;;3.50;3.20;;;21.80;56.70;22.50;100075.00;;;;6269839;22;20224;-55
2023/07/23 09:04:14;;;;;;;3.60;3.30;;;21.90;57.40;22.50;100081.00;;;;6269992;22;20144;-55
2023/07/23 09:06:42;;;;;;;3.03;2.73;;;21.80;57.70;22.50;100075.00;;;;6268051;22;20133;-54
2023/07/23 09:09:10;;;;;;;3.40;3.10;;;21.80;57.50;22.50;100078.00;;;;6270934;22;20633;-54
2023/07/23 09:11:36;;;;;;;3.20;2.90;;;21.80;57.50;22.50;100037.00;;;;6267420;22;20466;-54
2023/07/23 09:14:12;;;;;;;3.07;2.83;;;21.90;57.40;22.50;100045.00;;;;6269199;22;20209;-55
2023/07/23 09:16:41;;;;;;;4.07;3.03;;;21.80;57.10;22.50;100064.00;;;;6266356;22;20168;-54
2023/07/23 09:19:11;;;;;;;3.30;3.00;;;21.80;57.50;22.50;100067.00;;;;6269964;22;20166;-54
2023/07/23 09:21:39;;;;;;;3.30;3.00;;;21.80;58.70;22.50;100061.00;;;;6269399;22;20172;-54
2023/07/23 09:24:07;;;;;;;3.10;2.90;;;21.80;58.20;22.50;100060.00;;;;6268404;22;20152;-54
2023/07/23 09:26:35;;;;;;;3.37;3.07;;;21.80;58.20;22.50;100049.00;;;;6269065;22;20152;-54
2023/07/23 09:29:01;;;;;;;3.97;3.30;;;21.80;58.50;22.50;100050.00;;;;6270181;22;20165;-53
2023/07/23 09:31:29;;;;;;;3.30;2.97;;;21.90;58.90;22.50;100046.00;;;;6267467;22;20265;-51
2023/07/23 09:34:00;;;;;;;3.20;2.90;;;21.80;58.40;22.50;100045.00;;;;6270183;22;20184;-53
2023/07/23 09:36:27;;;;;;;3.90;2.70;;;21.80;58.70;22.40;100049.00;;;;6268227;22;20133;-54
2023/07/23 09:39:01;;;;;;;3.43;3.13;;;21.90;58.80;22.40;100044.00;;;;6266884;22;20168;-52
2023/07/23 09:41:32;;;;;;;3.13;2.83;;;21.80;58.90;22.40;100043.00;;;;6258481;22;20264;-54
2023/07/23 09:44:07;;;;;;;4.80;3.00;;;21.80;58.80;22.50;100046.00;;;;6270704;22;20164;-53
2023/07/23 09:46:33;;;;;;;2.93;2.73;;;21.80;58.90;22.40;100056.00;;;;6270008;22;20147;-52
2023/07/23 09:48:59;;;;;;;3.50;3.20;;;21.80;58.80;22.50;100058.00;;;;6270410;22;20169;-52
2023/07/23 09:51:25;;;;;;;3.47;2.80;;;21.80;58.80;22.50;100048.00;;;;6269576;22;20145;-53
2023/07/23 09:53:51;;;;;;;4.43;3.00;;;21.80;58.80;22.50;100061.00;;;;6269352;22;20173;-54
2023/07/23 09:56:18;;;;;;;4.77;2.93;;;21.80;58.60;22.50;100051.00;;;;6269418;22;20159;-54
2023/07/23 09:58:47;;;;;;;3.43;2.87;;;21.80;58.70;22.50;100057.00;;;;6270156;22;20229;-53
2023/07/23 10:01:14;;;;;;;4.97;3.30;;;21.80;58.70;22.40;100060.00;;;;6267865;22;20145;-53
2023/07/23 10:03:40;;;;;;;6.80;3.40;;;21.80;59.30;22.40;100068.00;;;;6268808;22;20231;-55
2023/07/23 10:06:11;;;;;;;5.37;3.13;;;21.80;59.40;22.50;100069.00;;;;6267422;22;20227;-55
2023/07/23 10:08:42;;;;;;;3.50;3.10;;;21.80;59.30;22.20;100075.00;;;;6268428;22;20184;-55
2023/07/23 10:11:11;;;;;;;3.63;3.33;;;21.80;59.60;22.50;100086.00;;;;6270563;22;20646;-53
2023/07/23 10:13:38;;;;;;;3.50;2.90;;;21.80;59.80;22.50;100073.00;;;;6269982;22;20145;-54
2023/07/23 10:16:07;;;;;;;3.00;2.70;;;21.80;59.70;22.50;100073.00;;;;6268453;22;20180;-54
2023/07/23 10:18:33;;;;;;;3.20;2.90;;;21.80;59.80;22.40;100083.00;;;;6272290;22;20165;-54
2023/07/23 10:20:58;;;;;;;3.10;2.80;;;21.80;60.00;22.40;100091.00;;;;6235878;22;20177;-55
2023/07/23 10:23:24;;;;;;;3.73;3.27;;;21.80;59.90;22.40;100089.00;;;;6270962;22;20145;-54
2023/07/23 10:25:50;;;;;;;3.20;2.90;;;21.80;60.40;22.40;100094.00;;;;6271278;22;20144;-54
2023/07/23 10:28:23;;;;;;;3.87;3.53;;;21.80;60.90;22.40;100090.00;;;;6245164;22;20233;-57
2023/07/23 10:31:19;;;;;;;3.43;3.00;;;21.80;61.50;22.50;100081.00;;;;6272135;22;20275;-54
2023/07/23 10:33:45;;;;;;;3.10;2.73;;;21.80;61.70;22.40;100088.00;;;;6271355;22;20169;-56
2023/07/23 10:36:11;;;;;;;3.30;3.10;;;21.80;62.00;22.40;100093.00;;;;6274893;22;20153;-54
2023/07/23 10:38:38;;;;;;;3.13;2.83;;;21.80;62.40;22.40;100094.00;;;;6271945;22;20172;-54
2023/07/23 10:41:04;;;;;;;3.00;2.70;;;21.80;62.80;22.40;100093.00;;;;6271985;22;20167;-54
2023/07/23 10:43:48;;;;;;;3.10;2.80;;;21.70;63.10;22.40;100094.00;;;;6272077;22;20149;-54
2023/07/23 10:46:17;;;;;;;4.83;2.70;;;21.80;63.30;22.40;100085.00;;;;6272480;22;20481;-50